sensor_id;sensor_type;location;lat;lon;timestamp;pressure;altitude;pressure_sealevel;temperature;humidity
8416;BME280;4245;42.120;24.732;2023-05-22T00:01:07;98946.94;;;16.87;100.00
8416;BME280;4245;42.120;24.732;2023-05-22T00:03:35;98944.34;;;16.78;100.00
8416;BME280;4245;42.120;24.732;2023-05-22T00:06:03;98949.38;;;16.81;100.00
8416;BME280;4245;42.120;24.732;2023-05-22T00:08:34;98945.00;;;16.98;100.00
8416;BME280;4245;42.120;24.732;2023-05-22T00:11:01;98937.44;;;16.93;100.00
8416;BME280;4245;42.120;24.732;2023-05-22T00:13:28;98936.25;;;16.95;100.00
8416;BME280;4245;42.120;24.732;2023-05-22T00:15:55;98941.63;;;16.95;100.00
8416;BME280;4245;42.120;24.732;2023-05-22T00:18:22;98934.41;;;16.96;100.00
8416;BME280;4245;42.120;24.732;2023-05-22T00:20:51;98940.00;;;17.03;100.00
8416;BME280;4245;42.120;24.732;2023-05-22T00:23:18;98933.81;;;17.02;100.00
8416;BME280;4245;42.120;24.732;2023-05-22T00:25:46;98940.75;;;17.13;100.00
8416;BME280;4245;42.120;24.732;2023-05-22T00:28:14;98941.22;;;17.08;100.00
8416;BME280;4245;42.120;24.732;2023-05-22T00:30:41;98941.72;;;17.04;100.00
8416;BME280;4245;42.120;24.732;2023-05-22T00:33:08;98940.31;;;17.00;100.00
8416;BME280;4245;42.120;24.732;2023-05-22T00:35:36;98938.78;;;16.97;100.00
8416;BME280;4245;42.120;24.732;2023-05-22T00:38:04;98938.47;;;17.00;100.00
8416;BME280;4245;42.120;24.732;2023-05-22T00:40:31;98946.69;;;16.99;100.00
8416;BME280;4245;42.120;24.732;2023-05-22T00:42:58;98947.06;;;17.04;100.00
8416;BME280;4245;42.120;24.732;2023-05-22T00:45:25;98943.38;;;17.05;100.00
8416;BME280;4245;42.120;24.732;2023-05-22T00:47:52;98951.50;;;17.13;100.00
8416;BME280;4245;42.120;24.732;2023-05-22T00:50:19;98949.34;;;17.16;100.00
8416;BME280;4245;42.120;24.732;2023-05-22T00:52:46;98957.91;;;17.20;100.00
8416;BME280;4245;42.120;24.732;2023-05-22T00:55:14;98946.53;;;17.26;100.00
8416;BME280;4245;42.120;24.732;2023-05-22T00:57:42;98955.50;;;17.34;100.00
8416;BME280;4245;42.120;24.732;2023-05-22T01:00:10;98948.44;;;17.33;100.00
8416;BME280;4245;42.120;24.732;2023-05-22T01:02:39;98954.59;;;17.26;100.00
8416;BME280;4245;42.120;24.732;2023-05-22T01:05:07;98949.94;;;17.28;100.00
8416;BME280;4245;42.120;24.732;2023-05-22T01:07:35;98952.75;;;17.26;100.00
8416;BME280;4245;42.120;24.732;2023-05-22T01:10:03;98951.91;;;17.26;100.00
8416;BME280;4245;42.120;24.732;2023-05-22T01:12:45;98949.56;;;17.23;100.00
8416;BME280;4245;42.120;24.732;2023-05-22T01:15:25;98955.06;;;17.21;100.00
8416;BME280;4245;42.120;24.732;2023-05-22T01:18:01;98948.75;;;17.30;100.00
8416;BME280;4245;42.120;24.732;2023-05-22T01:20:38;98950.63;;;17.38;100.00
8416;BME280;4245;42.120;24.732;2023-05-22T01:23:27;98949.22;;;17.26;100.00
8416;BME280;4245;42.120;24.732;2023-05-22T01:26:17;98947.03;;;17.21;100.00
8416;BME280;4245;42.120;24.732;2023-05-22T01:28:57;98933.94;;;17.18;100.00
8416;BME280;4245;42.120;24.732;2023-05-22T01:31:31;98943.59;;;17.11;100.00
8416;BME280;4245;42.120;24.732;2023-05-22T01:34:01;98942.13;;;17.17;100.00
8416;BME280;4245;42.120;24.732;2023-05-22T01:36:32;98943.25;;;17.14;100.00
8416;BME280;4245;42.120;24.732;2023-05-22T01:39:00;98947.13;;;17.12;100.00
8416;BME280;4245;42.120;24.732;2023-05-22T01:41:31;98942.59;;;17.12;100.00
8416;BME280;4245;42.120;24.732;2023-05-22T01:43:59;98934.53;;;17.12;100.00
8416;BME280;4245;42.120;24.732;2023-05-22T01:46:26;98939.84;;;17.30;100.00
8416;BME280;4245;42.120;24.732;2023-05-22T01:48:55;98932.03;;;17.36;100.00
8416;BME280;4245;42.120;24.732;2023-05-22T01:51:29;98935.47;;;17.29;100.00
8416;BME280;4245;42.120;24.732;2023-05-22T01:54:02;98940.56;;;17.32;100.00
8416;BME280;4245;42.120;24.732;2023-05-22T01:56:36;98939.13;;;17.20;100.00
8416;BME280;4245;42.120;24.732;2023-05-22T01:59:09;98937.06;;;17.14;100.00
8416;BME280;4245;42.120;24.732;2023-05-22T02:01:38;98934.91;;;17.17;100.00
8416;BME280;4245;42.120;24.732;2023-05-22T02:04:09;98937.97;;;17.22;100.00
8416;BME280;4245;42.120;24.732;2023-05-22T02:06:37;98938.31;;;17.02;100.00
8416;BME280;4245;42.120;24.732;2023-05-22T02:09:06;98933.06;;;16.92;100.00
8416;BME280;4245;42.120;24.732;2023-05-22T02:11:34;98935.03;;;16.90;100.00
8416;BME280;4245;42.120;24.732;2023-05-22T02:14:03;98937.69;;;17.08;100.00
8416;BME280;4245;42.120;24.732;2023-05-22T02:16:30;98942.38;;;17.06;100.00
8416;BME280;4245;42.120;24.732;2023-05-22T02:19:00;98944.63;;;16.92;100.00
8416;BME280;4245;42.120;24.732;2023-05-22T02:21:33;98949.38;;;16.99;100.00
8416;BME280;4245;42.120;24.732;2023-05-22T02:24:00;98944.59;;;17.10;100.00
8416;BME280;4245;42.120;24.732;2023-05-22T02:26:27;98946.31;;;17.19;100.00
8416;BME280;4245;42.120;24.732;2023-05-22T02:28:54;98942.13;;;17.17;100.00
8416;BME280;4245;42.120;24.732;2023-05-22T02:31:21;98934.91;;;17.17;100.00
8416;BME280;4245;42.120;24.732;2023-05-22T02:33:48;98942.59;;;17.12;100.00
8416;BME280;4245;42.120;24.732;2023-05-22T02:36:15;98941.84;;;17.02;100.00
8416;BME280;4245;42.120;24.732;2023-05-22T02:38:43;98940.88;;;17.03;100.00
8416;BME280;4245;42.120;24.732;2023-05-22T02:41:10;98944.81;;;17.17;100.00
8416;BME280;4245;42.120;24.732;2023-05-22T02:43:37;98952.72;;;17.18;100.00
8416;BME280;4245;42.120;24.732;2023-05-22T02:46:04;98950.31;;;17.15;100.00
8416;BME280;4245;42.120;24.732;2023-05-22T02:48:31;98945.66;;;17.17;100.00
8416;BME280;4245;42.120;24.732;2023-05-22T02:50:57;98941.28;;;17.16;100.00
8416;BME280;4245;42.120;24.732;2023-05-22T02:53:24;98936.38;;;17.12;100.00
8416;BME280;4245;42.120;24.732;2023-05-22T02:55:53;98949.00;;;17.19;100.00
8416;BME280;4245;42.120;24.732;2023-05-22T02:58:23;98938.25;;;17.37;100.00
8416;BME280;4245;42.120;24.732;2023-05-22T03:00:50;98943.53;;;17.29;100.00
8416;BME280;4245;42.120;24.732;2023-05-22T03:03:18;98937.41;;;17.19;100.00
8416;BME280;4245;42.120;24.732;2023-05-22T03:05:45;98935.31;;;17.05;100.00
8416;BME280;4245;42.120;24.732;2023-05-22T03:08:11;98937.84;;;17.06;100.00
8416;BME280;4245;42.120;24.732;2023-05-22T03:10:39;98944.00;;;16.99;100.00
8416;BME280;4245;42.120;24.732;2023-05-22T03:13:08;98940.94;;;16.93;100.00
8416;BME280;4245;42.120;24.732;2023-05-22T03:15:34;98943.00;;;17.00;100.00
8416;BME280;4245;42.120;24.732;2023-05-22T03:18:01;98951.97;;;17.08;100.00
8416;BME280;4245;42.120;24.732;2023-05-22T03:20:28;98952.91;;;17.25;100.00
8416;BME280;4245;42.120;24.732;2023-05-22T03:22:55;98955.59;;;17.25;100.00
8416;BME280;4245;42.120;24.732;2023-05-22T03:25:22;98951.69;;;17.19;100.00
8416;BME280;4245;42.120;24.732;2023-05-22T03:27:49;98941.19;;;17.26;100.00
8416;BME280;4245;42.120;24.732;2023-05-22T03:30:17;98945.69;;;17.25;100.00
8416;BME280;4245;42.120;24.732;2023-05-22T03:32:44;98947.34;;;17.18;100.00
8416;BME280;4245;42.120;24.732;2023-05-22T03:35:10;98952.50;;;17.12;100.00
8416;BME280;4245;42.120;24.732;2023-05-22T03:37:40;98945.06;;;17.06;100.00
8416;BME280;4245;42.120;24.732;2023-05-22T03:40:07;98952.25;;;17.05;100.00
8416;BME280;4245;42.120;24.732;2023-05-22T03:42:34;98955.84;;;17.14;100.00
8416;BME280;4245;42.120;24.732;2023-05-22T03:45:01;98949.09;;;17.10;100.00
8416;BME280;4245;42.120;24.732;2023-05-22T03:47:30;98946.75;;;17.07;100.00
8416;BME280;4245;42.120;24.732;2023-05-22T03:49:56;98950.22;;;17.25;100.00
8416;BME280;4245;42.120;24.732;2023-05-22T03:52:24;98949.28;;;17.34;100.00
8416;BME280;4245;42.120;24.732;2023-05-22T03:54:50;98947.81;;;17.39;100.00
8416;BME280;4245;42.120;24.732;2023-05-22T03:57:17;98949.94;;;17.28;100.00
8416;BME280;4245;42.120;24.732;2023-05-22T03:59:45;98959.28;;;17.24;100.00
8416;BME280;4245;42.120;24.732;2023-05-22T04:02:11;98954.81;;;17.32;100.00
8416;BME280;4245;42.120;24.732;2023-05-22T04:04:42;98960.59;;;17.46;100.00
8416;BME280;4245;42.120;24.732;2023-05-22T04:07:10;98959.78;;;17.53;100.00
8416;BME280;4245;42.120;24.732;2023-05-22T04:09:38;98955.34;;;17.36;100.00
8416;BME280;4245;42.120;24.732;2023-05-22T04:12:06;98958.88;;;17.36;100.00
8416;BME280;4245;42.120;24.732;2023-05-22T04:14:33;98955.59;;;17.25;100.00
8416;BME280;4245;42.120;24.732;2023-05-22T04:16:59;98959.63;;;17.29;100.00
8416;BME280;4245;42.120;24.732;2023-05-22T04:19:26;98965.75;;;17.39;100.00
8416;BME280;4245;42.120;24.732;2023-05-22T04:21:56;98963.06;;;17.39;100.00
8416;BME280;4245;42.120;24.732;2023-05-22T04:24:23;98962.19;;;17.30;100.00
8416;BME280;4245;42.120;24.732;2023-05-22T04:26:50;98962.19;;;17.30;100.00
8416;BME280;4245;42.120;24.732;2023-05-22T04:29:17;98958.34;;;17.33;100.00
8416;BME280;4245;42.120;24.732;2023-05-22T04:31:46;98962.41;;;17.37;100.00
8416;BME280;4245;42.120;24.732;2023-05-22T04:34:14;98963.53;;;17.34;100.00
8416;BME280;4245;42.120;24.732;2023-05-22T04:36:41;98964.44;;;17.43;100.00
8416;BME280;4245;42.120;24.732;2023-05-22T04:39:10;98967.34;;;17.50;100.00
8416;BME280;4245;42.120;24.732;2023-05-22T04:41:38;98977.03;;;17.43;100.00
8416;BME280;4245;42.120;24.732;2023-05-22T04:44:05;98964.72;;;17.32;100.00
8416;BME280;4245;42.120;24.732;2023-05-22T04:46:32;98968.63;;;17.37;100.00
8416;BME280;4245;42.120;24.732;2023-05-22T04:49:00;98969.81;;;17.43;100.00
8416;BME280;4245;42.120;24.732;2023-05-22T04:51:28;98963.94;;;17.48;100.00
8416;BME280;4245;42.120;24.732;2023-05-22T04:53:55;98963.31;;;17.54;100.00
8416;BME280;4245;42.120;24.732;2023-05-22T04:56:24;98971.78;;;17.59;100.00
8416;BME280;4245;42.120;24.732;2023-05-22T04:58:51;98971.22;;;17.55;100.00
8416;BME280;4245;42.120;24.732;2023-05-22T05:01:18;98962.84;;;17.58;100.00
8416;BME280;4245;42.120;24.732;2023-05-22T05:03:45;98968.19;;;17.76;100.00
8416;BME280;4245;42.120;24.732;2023-05-22T05:06:12;98978.13;;;17.84;100.00
8416;BME280;4245;42.120;24.732;2023-05-22T05:08:38;98974.63;;;17.91;100.00
8416;BME280;4245;42.120;24.732;2023-05-22T05:11:06;98980.22;;;18.06;100.00
8416;BME280;4245;42.120;24.732;2023-05-22T05:13:34;98976.53;;;18.07;100.00
8416;BME280;4245;42.120;24.732;2023-05-22T05:16:01;98978.59;;;18.13;100.00
8416;BME280;4245;42.120;24.732;2023-05-22T05:18:28;98979.06;;;18.08;100.00
8416;BME280;4245;42.120;24.732;2023-05-22T05:20:55;98972.38;;;18.12;100.00
8416;BME280;4245;42.120;24.732;2023-05-22T05:23:22;98973.22;;;18.13;100.00
8416;BME280;4245;42.120;24.732;2023-05-22T05:25:48;98976.91;;;18.12;100.00
8416;BME280;4245;42.120;24.732;2023-05-22T05:28:15;98977.41;;;18.15;100.00
8416;BME280;4245;42.120;24.732;2023-05-22T05:30:44;98976.91;;;18.12;100.00
8416;BME280;4245;42.120;24.732;2023-05-22T05:33:10;98969.88;;;18.27;100.00
8416;BME280;4245;42.120;24.732;2023-05-22T05:35:37;98987.94;;;18.51;100.00
8416;BME280;4245;42.120;24.732;2023-05-22T05:38:04;98984.97;;;18.70;100.00
8416;BME280;4245;42.120;24.732;2023-05-22T05:40:31;98984.34;;;18.92;100.00
8416;BME280;4245;42.120;24.732;2023-05-22T05:42:58;98984.31;;;18.84;100.00
8416;BME280;4245;42.120;24.732;2023-05-22T05:45:25;98992.22;;;18.86;100.00
8416;BME280;4245;42.120;24.732;2023-05-22T05:47:53;98997.47;;;18.87;100.00
8416;BME280;4245;42.120;24.732;2023-05-22T05:50:20;99009.69;;;18.74;100.00
8416;BME280;4245;42.120;24.732;2023-05-22T05:52:47;99013.41;;;18.73;100.00
8416;BME280;4245;42.120;24.732;2023-05-22T05:55:14;99023.84;;;18.76;100.00
8416;BME280;4245;42.120;24.732;2023-05-22T05:57:41;99015.75;;;18.67;100.00
8416;BME280;4245;42.120;24.732;2023-05-22T06:00:09;99008.34;;;18.61;100.00
8416;BME280;4245;42.120;24.732;2023-05-22T06:02:36;99008.53;;;18.26;100.00
8416;BME280;4245;42.120;24.732;2023-05-22T06:05:05;99008.31;;;18.11;100.00
8416;BME280;4245;42.120;24.732;2023-05-22T06:07:33;99012.44;;;18.40;100.00
8416;BME280;4245;42.120;24.732;2023-05-22T06:10:03;99007.34;;;18.79;100.00
8416;BME280;4245;42.120;24.732;2023-05-22T06:12:30;99015.63;;;19.09;100.00
8416;BME280;4245;42.120;24.732;2023-05-22T06:14:57;99018.16;;;19.19;100.00
8416;BME280;4245;42.120;24.732;2023-05-22T06:17:24;99028.03;;;19.75;100.00
8416;BME280;4245;42.120;24.732;2023-05-22T06:19:51;99028.06;;;20.30;100.00
8416;BME280;4245;42.120;24.732;2023-05-22T06:22:19;99032.44;;;20.62;100.00
8416;BME280;4245;42.120;24.732;2023-05-22T06:24:49;99025.47;;;20.99;100.00
8416;BME280;4245;42.120;24.732;2023-05-22T06:27:18;99035.81;;;21.18;100.00
8416;BME280;4245;42.120;24.732;2023-05-22T06:29:47;99035.03;;;21.32;100.00
8416;BME280;4245;42.120;24.732;2023-05-22T06:32:13;99035.63;;;21.42;100.00
8416;BME280;4245;42.120;24.732;2023-05-22T06:34:41;99033.38;;;21.46;100.00
8416;BME280;4245;42.120;24.732;2023-05-22T06:37:08;99033.38;;;21.46;100.00
8416;BME280;4245;42.120;24.732;2023-05-22T06:39:37;99032.53;;;21.45;100.00
8416;BME280;4245;42.120;24.732;2023-05-22T06:42:05;99042.56;;;21.97;100.00
8416;BME280;4245;42.120;24.732;2023-05-22T06:47:07;99048.13;;;22.54;94.85
8416;BME280;4245;42.120;24.732;2023-05-22T06:49:34;99044.22;;;22.13;91.59
8416;BME280;4245;42.120;24.732;2023-05-22T06:52:00;99045.81;;;22.36;84.25
8416;BME280;4245;42.120;24.732;2023-05-22T06:54:27;99044.97;;;22.36;82.63
8416;BME280;4245;42.120;24.732;2023-05-22T06:56:55;99050.44;;;22.57;80.11
8416;BME280;4245;42.120;24.732;2023-05-22T06:59:23;99054.44;;;23.12;77.60
8416;BME280;4245;42.120;24.732;2023-05-22T07:01:50;99048.75;;;23.49;76.35
8416;BME280;4245;42.120;24.732;2023-05-22T07:04:17;99051.72;;;24.10;71.40
8416;BME280;4245;42.120;24.732;2023-05-22T07:06:44;99047.13;;;23.82;70.05
8416;BME280;4245;42.120;24.732;2023-05-22T07:09:12;99050.38;;;24.20;67.57
8416;BME280;4245;42.120;24.732;2023-05-22T07:11:39;99053.38;;;24.45;68.53
8416;BME280;4245;42.120;24.732;2023-05-22T07:14:08;99063.97;;;24.75;65.58
8416;BME280;4245;42.120;24.732;2023-05-22T07:16:36;99058.84;;;24.99;63.75
8416;BME280;4245;42.120;24.732;2023-05-22T07:19:03;99060.50;;;24.87;61.47
8416;BME280;4245;42.120;24.732;2023-05-22T07:21:31;99055.72;;;25.09;60.63
8416;BME280;4245;42.120;24.732;2023-05-22T07:23:59;99056.25;;;25.65;56.96
8416;BME280;4245;42.120;24.732;2023-05-22T07:26:27;99050.16;;;25.50;56.86
8416;BME280;4245;42.120;24.732;2023-05-22T07:28:54;99055.38;;;25.45;56.77
8416;BME280;4245;42.120;24.732;2023-05-22T07:31:22;99056.00;;;25.47;56.36
8416;BME280;4245;42.120;24.732;2023-05-22T07:33:49;99056.06;;;25.60;56.46
8416;BME280;4245;42.120;24.732;2023-05-22T07:36:16;99055.41;;;25.84;55.86
8416;BME280;4245;42.120;24.732;2023-05-22T07:38:43;99053.50;;;25.98;56.57
8416;BME280;4245;42.120;24.732;2023-05-22T07:41:10;99059.34;;;26.28;53.66
8416;BME280;4245;42.120;24.732;2023-05-22T07:43:37;99056.41;;;26.16;51.88
8416;BME280;4245;42.120;24.732;2023-05-22T07:46:03;99063.38;;;25.79;48.74
8416;BME280;4245;42.120;24.732;2023-05-22T07:48:32;99065.44;;;25.58;51.24
8416;BME280;4245;42.120;24.732;2023-05-22T07:50:59;99059.41;;;25.69;52.10
8416;BME280;4245;42.120;24.732;2023-05-22T07:53:28;99059.97;;;26.17;52.14
8416;BME280;4245;42.120;24.732;2023-05-22T07:55:54;99051.31;;;26.53;53.78
8416;BME280;4245;42.120;24.732;2023-05-22T07:58:21;99047.50;;;26.60;48.69
8416;BME280;4245;42.120;24.732;2023-05-22T08:00:49;99053.56;;;26.62;50.96
8416;BME280;4245;42.120;24.732;2023-05-22T08:03:16;99052.75;;;26.49;51.08
8416;BME280;4245;42.120;24.732;2023-05-22T08:05:44;99057.44;;;26.93;52.24
8416;BME280;4245;42.120;24.732;2023-05-22T08:08:11;99064.66;;;27.43;54.70
8416;BME280;4245;42.120;24.732;2023-05-22T08:10:38;99067.81;;;27.96;45.55
8416;BME280;4245;42.120;24.732;2023-05-22T08:13:05;99053.56;;;28.19;45.45
8416;BME280;4245;42.120;24.732;2023-05-22T08:15:32;99058.72;;;28.27;42.72
8416;BME280;4245;42.120;24.732;2023-05-22T08:17:59;99065.34;;;28.74;41.81
8416;BME280;4245;42.120;24.732;2023-05-22T08:20:26;99063.50;;;28.50;41.58
8416;BME280;4245;42.120;24.732;2023-05-22T08:22:54;99064.63;;;27.99;46.36
8416;BME280;4245;42.120;24.732;2023-05-22T08:25:21;99060.63;;;28.27;44.47
8416;BME280;4245;42.120;24.732;2023-05-22T08:27:47;99063.50;;;28.68;42.37
8416;BME280;4245;42.120;24.732;2023-05-22T08:30:14;99064.63;;;29.27;40.99
8416;BME280;4245;42.120;24.732;2023-05-22T08:32:41;99063.69;;;29.86;38.30
8416;BME280;4245;42.120;24.732;2023-05-22T08:35:09;99050.91;;;29.45;40.80
8416;BME280;4245;42.120;24.732;2023-05-22T08:37:35;99058.03;;;30.11;39.28
8416;BME280;4245;42.120;24.732;2023-05-22T08:40:05;99060.72;;;30.69;36.62
8416;BME280;4245;42.120;24.732;2023-05-22T08:42:32;99054.66;;;29.97;37.98
8416;BME280;4245;42.120;24.732;2023-05-22T08:44:59;99047.97;;;29.28;42.79
8416;BME280;4245;42.120;24.732;2023-05-22T08:47:26;99050.69;;;29.70;38.56
8416;BME280;4245;42.120;24.732;2023-05-22T08:49:54;99051.16;;;29.25;40.37
8416;BME280;4245;42.120;24.732;2023-05-22T08:52:29;99056.69;;;29.07;41.08
8416;BME280;4245;42.120;24.732;2023-05-22T08:54:58;99057.25;;;29.27;39.25
8416;BME280;4245;42.120;24.732;2023-05-22T08:57:31;99056.22;;;29.10;38.85
8416;BME280;4245;42.120;24.732;2023-05-22T08:59:58;99052.97;;;28.90;39.97
8416;BME280;4245;42.120;24.732;2023-05-22T09:02:25;99055.94;;;29.00;39.67
8416;BME280;4245;42.120;24.732;2023-05-22T09:04:52;99051.78;;;29.27;39.79
8416;BME280;4245;42.120;24.732;2023-05-22T09:07:19;99049.63;;;29.83;39.37
8416;BME280;4245;42.120;24.732;2023-05-22T09:09:46;99053.03;;;29.96;36.90
8416;BME280;4245;42.120;24.732;2023-05-22T09:12:13;99049.34;;;29.38;39.24
8416;BME280;4245;42.120;24.732;2023-05-22T09:14:42;99039.63;;;29.65;38.22
8416;BME280;4245;42.120;24.732;2023-05-22T09:17:10;99042.91;;;29.44;38.95
8416;BME280;4245;42.120;24.732;2023-05-22T09:19:42;99040.63;;;30.17;37.97
8416;BME280;4245;42.120;24.732;2023-05-22T09:22:11;99044.63;;;30.89;36.98
8416;BME280;4245;42.120;24.732;2023-05-22T09:24:39;99044.84;;;30.99;36.13
8416;BME280;4245;42.120;24.732;2023-05-22T09:27:06;99050.88;;;29.98;36.80
8416;BME280;4245;42.120;24.732;2023-05-22T09:29:46;99047.84;;;29.88;36.80
8416;BME280;4245;42.120;24.732;2023-05-22T09:32:14;99047.25;;;29.74;38.10
8416;BME280;4245;42.120;24.732;2023-05-22T09:34:41;99050.19;;;30.78;35.98
8416;BME280;4245;42.120;24.732;2023-05-22T09:37:11;99052.81;;;30.73;34.42
8416;BME280;4245;42.120;24.732;2023-05-22T09:39:38;99045.84;;;30.53;34.91
8416;BME280;4245;42.120;24.732;2023-05-22T09:42:06;99045.06;;;30.70;35.00
8416;BME280;4245;42.120;24.732;2023-05-22T09:44:34;99045.34;;;30.56;34.27
8416;BME280;4245;42.120;24.732;2023-05-22T09:47:03;99047.78;;;29.95;35.25
8416;BME280;4245;42.120;24.732;2023-05-22T09:49:35;99044.91;;;29.07;37.78
8416;BME280;4245;42.120;24.732;2023-05-22T09:52:03;99032.41;;;28.51;39.21
8416;BME280;4245;42.120;24.732;2023-05-22T09:54:33;99037.47;;;29.25;37.92
8416;BME280;4245;42.120;24.732;2023-05-22T09:57:04;99027.59;;;28.83;38.40
8416;BME280;4245;42.120;24.732;2023-05-22T09:59:32;99030.47;;;28.33;40.40
8416;BME280;4245;42.120;24.732;2023-05-22T10:02:06;99035.44;;;28.00;40.49
8416;BME280;4245;42.120;24.732;2023-05-22T10:04:34;99024.31;;;28.92;38.30
8416;BME280;4245;42.120;24.732;2023-05-22T10:07:02;99028.44;;;29.25;35.38
8416;BME280;4245;42.120;24.732;2023-05-22T10:09:30;99026.53;;;29.55;35.73
8416;BME280;4245;42.120;24.732;2023-05-22T10:12:04;99029.13;;;29.39;35.04
8416;BME280;4245;42.120;24.732;2023-05-22T10:14:33;99029.72;;;29.41;35.43
8416;BME280;4245;42.120;24.732;2023-05-22T10:17:00;99018.56;;;29.65;34.85
8416;BME280;4245;42.120;24.732;2023-05-22T10:19:31;99029.41;;;30.53;33.67
8416;BME280;4245;42.120;24.732;2023-05-22T10:21:59;99015.03;;;30.00;34.85
8416;BME280;4245;42.120;24.732;2023-05-22T10:24:26;99015.03;;;30.00;34.90
8416;BME280;4245;42.120;24.732;2023-05-22T10:26:54;99013.66;;;30.37;33.71
8416;BME280;4245;42.120;24.732;2023-05-22T10:29:24;99015.00;;;30.35;32.59
8416;BME280;4245;42.120;24.732;2023-05-22T10:31:57;99015.34;;;30.27;32.71
8416;BME280;4245;42.120;24.732;2023-05-22T10:34:30;99022.94;;;30.36;32.76
8416;BME280;4245;42.120;24.732;2023-05-22T10:37:24;99016.97;;;30.62;31.96
8416;BME280;4245;42.120;24.732;2023-05-22T10:40:00;99032.53;;;31.14;30.43
8416;BME280;4245;42.120;24.732;2023-05-22T10:42:29;99024.88;;;31.16;30.77
8416;BME280;4245;42.120;24.732;2023-05-22T10:44:57;99022.97;;;30.88;31.75
8416;BME280;4245;42.120;24.732;2023-05-22T10:47:25;99016.25;;;30.95;30.05
8416;BME280;4245;42.120;24.732;2023-05-22T10:50:02;99016.66;;;30.87;31.29
8416;BME280;4245;42.120;24.732;2023-05-22T10:52:31;99013.69;;;30.49;30.93
8416;BME280;4245;42.120;24.732;2023-05-22T10:54:59;99013.31;;;30.85;30.37
8416;BME280;4245;42.120;24.732;2023-05-22T10:57:26;99001.13;;;31.38;30.29
8416;BME280;4245;42.120;24.732;2023-05-22T11:00:08;99001.97;;;31.88;28.51
8416;BME280;4245;42.120;24.732;2023-05-22T11:02:38;98994.84;;;31.71;29.30
8416;BME280;4245;42.120;24.732;2023-05-22T11:05:34;98983.81;;;31.87;28.59
8416;BME280;4245;42.120;24.732;2023-05-22T11:08:36;98974.38;;;32.00;26.65
8416;BME280;4245;42.120;24.732;2023-05-22T11:11:12;98978.84;;;31.18;28.18
8416;BME280;4245;42.120;24.732;2023-05-22T11:13:39;98971.00;;;31.26;28.41
8416;BME280;4245;42.120;24.732;2023-05-22T11:16:08;98968.94;;;31.67;28.84
8416;BME280;4245;42.120;24.732;2023-05-22T11:18:36;98971.31;;;32.35;27.16
8416;BME280;4245;42.120;24.732;2023-05-22T11:21:03;98967.56;;;32.90;26.94
8416;BME280;4245;42.120;24.732;2023-05-22T11:23:33;98972.59;;;33.56;25.55
8416;BME280;4245;42.120;24.732;2023-05-22T11:26:18;98968.22;;;32.97;26.15
8416;BME280;4245;42.120;24.732;2023-05-22T11:28:50;98976.13;;;32.06;27.07
8416;BME280;4245;42.120;24.732;2023-05-22T11:31:19;98966.44;;;32.20;27.45
8416;BME280;4245;42.120;24.732;2023-05-22T11:33:48;98977.19;;;32.22;27.40
8416;BME280;4245;42.120;24.732;2023-05-22T11:36:16;98975.50;;;31.16;29.13
8416;BME280;4245;42.120;24.732;2023-05-22T11:38:44;98980.56;;;30.79;29.16
8416;BME280;4245;42.120;24.732;2023-05-22T11:41:14;98980.56;;;30.79;27.86
8416;BME280;4245;42.120;24.732;2023-05-22T11:43:43;98979.63;;;29.52;29.65
8416;BME280;4245;42.120;24.732;2023-05-22T11:46:10;98992.94;;;29.36;29.21
8416;BME280;4245;42.120;24.732;2023-05-22T11:48:41;99005.03;;;28.69;32.24
8416;BME280;4245;42.120;24.732;2023-05-22T11:51:08;98988.00;;;27.76;42.07
8416;BME280;4245;42.120;24.732;2023-05-22T11:53:35;98995.38;;;26.88;48.79
8416;BME280;4245;42.120;24.732;2023-05-22T11:56:03;98991.69;;;26.18;52.63
8416;BME280;4245;42.120;24.732;2023-05-22T11:58:30;98988.97;;;26.18;53.14
8416;BME280;4245;42.120;24.732;2023-05-22T12:00:59;98990.06;;;25.98;54.17
8416;BME280;4245;42.120;24.732;2023-05-22T12:03:27;98986.75;;;25.89;57.60
8416;BME280;4245;42.120;24.732;2023-05-22T12:05:54;98979.66;;;25.68;63.92
8416;BME280;4245;42.120;24.732;2023-05-22T12:08:21;98989.06;;;25.39;63.94
8416;BME280;4245;42.120;24.732;2023-05-22T12:10:49;98977.16;;;25.21;64.13
8416;BME280;4245;42.120;24.732;2023-05-22T12:13:22;98971.88;;;25.13;60.42
8416;BME280;4245;42.120;24.732;2023-05-22T12:15:49;98961.41;;;24.90;63.43
8416;BME280;4245;42.120;24.732;2023-05-22T12:18:18;98970.66;;;25.02;62.29
8416;BME280;4245;42.120;24.732;2023-05-22T12:20:45;98977.13;;;25.27;60.76
8416;BME280;4245;42.120;24.732;2023-05-22T12:23:19;98980.69;;;25.47;61.02
8416;BME280;4245;42.120;24.732;2023-05-22T12:25:46;98974.84;;;25.70;58.13
8416;BME280;4245;42.120;24.732;2023-05-22T12:28:13;98971.94;;;25.65;58.58
8416;BME280;4245;42.120;24.732;2023-05-22T12:30:40;98971.53;;;25.55;59.67
8416;BME280;4245;42.120;24.732;2023-05-22T12:33:13;98975.91;;;25.56;58.61
8416;BME280;4245;42.120;24.732;2023-05-22T12:35:41;98975.06;;;25.36;59.99
8416;BME280;4245;42.120;24.732;2023-05-22T12:38:09;98968.75;;;25.09;60.91
8416;BME280;4245;42.120;24.732;2023-05-22T12:40:37;98966.88;;;25.03;61.51
8416;BME280;4245;42.120;24.732;2023-05-22T12:43:04;98964.81;;;25.12;62.20
8416;BME280;4245;42.120;24.732;2023-05-22T12:45:31;98959.78;;;25.15;60.79
8416;BME280;4245;42.120;24.732;2023-05-22T12:47:57;98960.22;;;25.12;60.59
8416;BME280;4245;42.120;24.732;2023-05-22T12:50:24;98957.91;;;25.29;60.58
8416;BME280;4245;42.120;24.732;2023-05-22T12:52:52;98962.50;;;25.68;59.84
8416;BME280;4245;42.120;24.732;2023-05-22T12:55:19;98963.88;;;26.03;57.97
8416;BME280;4245;42.120;24.732;2023-05-22T12:57:46;98957.53;;;26.16;57.02
8416;BME280;4245;42.120;24.732;2023-05-22T13:00:13;98964.69;;;26.23;56.29
8416;BME280;4245;42.120;24.732;2023-05-22T13:02:40;98955.22;;;26.32;56.10
8416;BME280;4245;42.120;24.732;2023-05-22T13:05:07;98968.69;;;26.59;51.90
8416;BME280;4245;42.120;24.732;2023-05-22T13:07:34;98966.25;;;26.44;53.23
8416;BME280;4245;42.120;24.732;2023-05-22T13:10:03;98961.63;;;27.20;51.60
8416;BME280;4245;42.120;24.732;2023-05-22T13:12:30;98959.31;;;28.28;49.06
8416;BME280;4245;42.120;24.732;2023-05-22T13:14:57;98959.81;;;29.26;46.18